Time;durP1;ratioP1;P1;durP2;ratioP2;P2;SDS_P1;SDS_P2;PMS_P1;PMS_P2;Temp;Humidity;BMP_temperature;BMP_pressure;BME280_temperature;BME280_humidity;BME280_pressure;Samples;Min_cycle;Max_cycle;Signal;HPM_P1;HPM_P2
2021/08/31 00:01:06;;;;;;;;;16.25;13.50;;;;;18.85;64.16;101569.72;5080437;28;45701;-81
2021/08/31 00:03:31;;;;;;;;;16.00;14.50;;;;;18.74;63.96;101547.75;5062918;28;45378;-84
2021/08/31 00:05:57;;;;;;;;;17.00;12.75;;;;;18.72;63.87;101547.09;5078010;28;45679;-82
2021/08/31 00:08:22;;;;;;;;;16.00;14.50;;;;;18.71;64.19;101537.44;5078400;28;45488;-85
2021/08/31 00:10:48;;;;;;;;;15.50;14.50;;;;;18.82;64.21;101567.34;5078854;28;46081;-82
2021/08/31 00:13:15;;;;;;;;;15.25;13.75;;;;;18.73;63.80;101546.09;5079345;28;45635;-83
2021/08/31 00:15:41;;;;;;;;;15.00;13.50;;;;;18.77;64.11;101548.34;5080931;28;45255;-82
2021/08/31 00:18:06;;;;;;;;;14.25;12.75;;;;;18.68;64.04;101532.38;5083180;28;46404;-82
2021/08/31 00:20:31;;;;;;;;;16.00;14.50;;;;;18.77;64.08;101551.00;5063293;28;45728;-85
2021/08/31 00:22:58;;;;;;;;;15.25;14.50;;;;;18.70;64.21;101543.72;5065412;28;45498;-79
2021/08/31 00:25:24;;;;;;;;;14.25;13.75;;;;;18.72;63.93;101553.22;5085015;28;45526;-80
2021/08/31 00:31:12;;;;;;;;;16.75;14.00;;;;;18.70;64.15;101557.84;5083619;28;45758;-80
2021/08/31 00:33:37;;;;;;;;;16.50;13.00;;;;;18.70;63.81;101559.66;5082639;28;45223;-80
2021/08/31 00:36:04;;;;;;;;;16.00;14.50;;;;;18.69;63.88;101547.34;5084525;28;45569;-79
2021/08/31 00:38:31;;;;;;;;;16.50;13.00;;;;;18.46;63.84;101518.34;5085854;28;46356;-80
2021/08/31 00:40:57;;;;;;;;;16.00;13.50;;;;;18.69;63.79;101553.50;5085157;28;46269;-82
2021/08/31 00:43:22;;;;;;;;;13.75;13.00;;;;;18.64;64.09;101550.41;5084753;28;45470;-80
2021/08/31 00:45:49;;;;;;;;;13.75;13.25;;;;;18.69;64.00;101550.00;5082634;28;45664;-80
2021/08/31 00:48:17;;;;;;;;;15.75;14.00;;;;;18.72;63.84;101560.34;5083166;28;46463;-80
2021/08/31 00:50:46;;;;;;;;;13.50;12.75;;;;;18.65;64.04;101549.44;5081275;28;46588;-80
2021/08/31 00:53:12;;;;;;;;;13.50;12.25;;;;;18.67;64.17;101549.31;5084761;28;45454;-80
2021/08/31 00:55:37;;;;;;;;;15.00;12.75;;;;;18.69;64.09;101558.81;5067222;28;45870;-79
2021/08/31 01:01:24;;;;;;;;;14.25;11.50;;;;;18.64;64.43;101549.56;5089159;28;45478;-79
2021/08/31 01:03:51;;;;;;;;;17.75;12.50;;;;;18.63;64.56;101545.22;5089695;28;45624;-80
2021/08/31 01:06:17;;;;;;;;;17.50;15.25;;;;;18.61;64.22;101539.25;5070166;28;45495;-80
2021/08/31 01:08:44;;;;;;;;;12.25;10.75;;;;;18.53;64.13;101536.38;5084761;28;46623;-82
2021/08/31 01:11:09;;;;;;;;;15.25;13.25;;;;;18.45;64.07;101543.25;5086836;28;46274;-82
2021/08/31 01:16:57;;;;;;;;;16.75;13.75;;;;;18.53;64.32;101557.63;5091574;28;44975;-80
2021/08/31 01:19:30;;;;;;;;;16.25;15.00;;;;;18.53;64.77;101562.94;5090557;28;46556;-81
2021/08/31 01:21:58;;;;;;;;;16.00;15.00;;;;;18.48;64.69;101555.38;5092757;28;45280;-78
2021/08/31 01:24:24;;;;;;;;;18.00;14.00;;;;;18.27;64.20;101515.69;5093155;28;45816;-81
2021/08/31 01:26:50;;;;;;;;;17.75;14.50;;;;;18.46;64.15;101550.22;5091776;28;45759;-79
2021/08/31 01:29:15;;;;;;;;;13.75;11.00;;;;;18.51;64.62;101567.56;5092258;28;46459;-85
2021/08/31 01:31:42;;;;;;;;;15.75;12.50;;;;;18.44;64.65;101554.00;5092486;28;45589;-82
2021/08/31 01:34:07;;;;;;;;;11.25;10.50;;;;;18.38;64.47;101549.22;5091223;28;45599;-79
2021/08/31 01:36:34;;;;;;;;;13.00;12.00;;;;;18.36;64.42;101546.69;5091452;28;45533;-79
2021/08/31 01:39:00;;;;;;;;;13.25;11.50;;;;;18.46;64.15;101563.47;5089898;28;47317;-81
2021/08/31 01:41:26;;;;;;;;;15.00;12.00;;;;;18.43;64.19;101569.06;5088980;28;46191;-82
2021/08/31 01:47:14;;;;;;;;;12.50;11.25;;;;;18.37;64.52;101563.47;5087453;28;45718;-82
2021/08/31 01:49:40;;;;;;;;;10.50;9.25;;;;;18.34;64.76;101563.75;5082654;28;46597;-85
2021/08/31 01:52:06;;;;;;;;;11.25;10.00;;;;;18.40;64.50;101577.31;5083642;28;45704;-82
2021/08/31 01:54:31;;;;;;;;;10.00;9.25;;;;;18.34;64.71;101561.09;5083146;28;45459;-83
2021/08/31 01:57:17;;;;;;;;;9.25;9.25;;;;;18.25;64.39;101560.06;5068739;28;45823;-80
2021/08/31 01:59:42;;;;;;;;;10.25;9.75;;;;;18.37;64.84;101574.06;5065500;28;46523;-79
2021/08/31 02:02:07;;;;;;;;;11.50;9.00;;;;;18.34;64.37;101571.72;5066123;28;47503;-83
2021/08/31 02:04:33;;;;;;;;;9.00;7.00;;;;;18.33;64.66;101573.50;5063330;28;45667;-82
2021/08/31 02:07:00;;;;;;;;;9.75;8.75;;;;;18.30;64.40;101588.88;5064284;28;45621;-80
2021/08/31 02:09:26;;;;;;;;;11.75;10.50;;;;;18.32;64.56;101573.63;5061987;28;45712;-83
2021/08/31 02:11:51;;;;;;;;;8.00;8.00;;;;;18.29;64.50;101573.94;5058578;28;45696;-81
2021/08/31 02:14:16;;;;;;;;;13.50;9.50;;;;;18.26;64.54;101575.03;5059062;28;45777;-80
2021/08/31 02:16:42;;;;;;;;;10.00;8.00;;;;;18.15;64.79;101553.91;5061925;28;45477;-79
2021/08/31 02:19:08;;;;;;;;;12.50;9.50;;;;;18.07;64.91;101544.94;5062436;28;45593;-78
2021/08/31 02:21:34;;;;;;;;;10.25;9.25;;;;;18.20;64.82;101570.25;5065993;28;45598;-80
2021/08/31 02:24:00;;;;;;;;;8.50;8.00;;;;;18.16;64.93;101570.66;5047814;28;45599;-80
2021/08/31 02:26:30;;;;;;;;;11.50;9.50;;;;;18.02;64.77;101553.31;5064824;28;45554;-79
2021/08/31 02:32:17;;;;;;;;;11.50;10.75;;;;;18.13;65.20;101569.13;5083002;28;45717;-81
2021/08/31 02:34:42;;;;;;;;;10.00;9.25;;;;;18.05;64.82;101558.34;5086167;28;45623;-81
2021/08/31 02:37:08;;;;;;;;;13.25;9.75;;;;;18.13;64.83;101574.44;5085285;28;45485;-84
2021/08/31 02:39:36;;;;;;;;;10.50;9.50;;;;;18.08;64.78;101552.78;5065887;28;45711;-79
2021/08/31 02:42:01;;;;;;;;;10.00;9.00;;;;;18.10;64.79;101558.78;5088320;28;45193;-80
2021/08/31 02:44:32;;;;;;;;;11.25;9.25;;;;;18.13;64.68;101566.47;5066285;28;45851;-79
2021/08/31 02:46:57;;;;;;;;;10.00;9.00;;;;;18.08;65.19;101560.75;5084142;28;45375;-80
2021/08/31 02:49:22;;;;;;;;;11.75;10.75;;;;;17.95;64.69;101545.03;5065533;28;47334;-81
2021/08/31 02:51:49;;;;;;;;;13.50;11.00;;;;;17.89;65.12;101536.78;5083856;28;45568;-78
2021/08/31 02:54:14;;;;;;;;;11.00;10.00;;;;;18.10;65.34;101572.03;5089205;28;45659;-81
2021/08/31 02:56:40;;;;;;;;;10.75;10.00;;;;;18.11;65.03;101571.06;5089914;28;45585;-78
2021/08/31 03:02:27;;;;;;;;;9.25;9.00;;;;;18.06;65.03;101557.38;5088935;28;45541;-83
2021/08/31 03:04:54;;;;;;;;;11.75;8.75;;;;;18.06;65.14;101556.53;5088971;28;45814;-80
2021/08/31 03:07:19;;;;;;;;;12.50;10.00;;;;;17.94;65.50;101540.72;5086165;28;45867;-79
2021/08/31 03:09:45;;;;;;;;;12.00;9.75;;;;;18.01;65.53;101541.88;5084176;28;45712;-80
2021/08/31 03:12:10;;;;;;;;;11.75;10.75;;;;;17.95;65.12;101536.25;5083967;28;45624;-81
2021/08/31 03:17:58;;;;;;;;;14.50;11.00;;;;;18.06;65.38;101546.75;5088939;28;45439;-87
2021/08/31 03:20:23;;;;;;;;;12.50;10.50;;;;;18.09;65.14;101564.19;5065451;28;46653;-86
2021/08/31 03:22:50;;;;;;;;;12.00;11.00;;;;;17.93;65.37;101527.56;5080431;28;45675;-87
2021/08/31 03:25:16;;;;;;;;;12.50;10.50;;;;;17.94;65.37;101535.41;5079114;28;45621;-81
2021/08/31 03:27:42;;;;;;;;;12.25;10.50;;;;;18.00;65.53;101550.78;5080056;28;45713;-85
2021/08/31 03:30:08;;;;;;;;;13.00;12.50;;;;;18.07;65.05;101552.91;5079334;28;46439;-82
2021/08/31 03:32:33;;;;;;;;;11.00;10.50;;;;;18.10;65.40;101560.56;5077275;28;46170;-83
2021/08/31 03:34:58;;;;;;;;;13.00;10.75;;;;;18.11;65.54;101571.06;5077466;28;45620;-81
2021/08/31 03:37:24;;;;;;;;;12.00;10.50;;;;;18.13;64.96;101571.78;5077759;28;45871;-84
2021/08/31 03:39:49;;;;;;;;;11.00;10.00;;;;;17.89;65.31;101528.81;5078306;28;45628;-81
2021/08/31 03:42:16;;;;;;;;;16.00;13.00;;;;;17.94;65.59;101548.66;5078846;28;46260;-81
2021/08/31 03:48:04;;;;;;;;;11.50;9.50;;;;;18.06;64.95;101562.66;5084891;28;45568;-80
2021/08/31 03:50:29;;;;;;;;;12.00;11.25;;;;;18.13;65.40;101573.59;5065050;28;46425;-80
2021/08/31 03:52:55;;;;;;;;;12.75;11.75;;;;;18.13;65.20;101574.44;5082562;28;45537;-84
2021/08/31 03:55:20;;;;;;;;;14.00;12.00;;;;;18.06;64.85;101559.19;5078477;28;45636;-82
2021/08/31 03:57:45;;;;;;;;;13.75;12.25;;;;;18.16;65.11;101582.13;5077968;28;45493;-86
2021/08/31 04:00:11;;;;;;;;;13.00;12.25;;;;;18.16;65.33;101574.16;5077540;28;46676;-85
2021/08/31 04:02:37;;;;;;;;;13.25;12.25;;;;;18.09;65.34;101570.34;5078054;28;47175;-82
2021/08/31 04:05:04;;;;;;;;;13.50;12.50;;;;;18.19;65.11;101583.66;5077858;28;45458;-89
2021/08/31 04:07:29;;;;;;;;;18.25;14.25;;;;;18.13;65.35;101573.59;5077704;28;45561;-81
2021/08/31 04:09:55;;;;;;;;;14.00;13.00;;;;;18.02;65.21;101554.16;5076971;28;45809;-86
2021/08/31 04:12:21;;;;;;;;;14.75;13.00;;;;;18.18;65.17;101574.03;5077146;28;46304;-83
2021/08/31 04:18:09;;;;;;;;;16.00;15.00;;;;;18.21;64.72;101584.34;5079214;28;45413;-84
2021/08/31 04:20:34;;;;;;;;;18.50;16.00;;;;;18.18;65.01;101589.94;5080632;28;45688;-86
2021/08/31 04:22:59;;;;;;;;;16.25;14.75;;;;;18.22;65.24;101591.34;5081352;28;45568;-82
2021/08/31 04:25:25;;;;;;;;;17.00;15.50;;;;;18.14;64.80;101577.94;5081113;28;46151;-84
2021/08/31 04:27:51;;;;;;;;;20.75;17.00;;;;;18.20;65.39;101603.91;5083244;28;45593;-86
2021/08/31 04:33:37;;;;;;;;;15.50;15.00;;;;;18.19;65.26;101594.28;5088690;28;45435;-81
2021/08/31 04:36:03;;;;;;;;;16.25;15.50;;;;;18.02;65.32;101570.06;5089680;28;45523;-83
2021/08/31 04:38:29;;;;;;;;;17.75;17.25;;;;;18.16;65.03;101598.03;5090215;28;45752;-80
2021/08/31 04:40:54;;;;;;;;;21.00;17.00;;;;;18.17;65.28;101596.22;5084818;28;45583;-85
2021/08/31 04:43:21;;;;;;;;;19.25;18.75;;;;;18.09;65.52;101580.13;5086016;28;45663;-79
2021/08/31 04:45:48;;;;;;;;;19.50;17.75;;;;;18.05;65.00;101574.25;5088276;28;45737;-78
2021/08/31 04:48:13;;;;;;;;;20.25;19.00;;;;;18.17;64.89;101597.06;5094734;22;45584;-84
2021/08/31 04:50:39;;;;;;;;;20.50;17.50;;;;;18.14;65.02;101589.34;5104626;27;46837;-78
2021/08/31 04:53:05;;;;;;;;;19.00;16.50;;;;;18.18;64.85;101598.75;5105627;27;45675;-79
2021/08/31 04:55:30;;;;;;;;;19.25;16.25;;;;;18.17;65.60;101597.06;5108617;27;45869;-81
2021/08/31 04:57:56;;;;;;;;;19.25;16.50;;;;;18.09;65.19;101593.38;5119521;27;45674;-80
2021/08/31 05:00:21;;;;;;;;;18.50;17.00;;;;;18.15;65.08;101598.16;5094237;27;47432;-92
2021/08/31 05:02:49;;;;;;;;;18.50;18.00;;;;;17.92;65.48;101555.09;5108437;27;46294;-82
2021/08/31 05:05:14;;;;;;;;;20.50;17.00;;;;;18.17;65.20;101601.53;5103371;27;45598;-81
2021/08/31 05:07:40;;;;;;;;;24.25;20.25;;;;;18.04;65.35;101572.56;5101945;27;46092;-83
2021/08/31 05:10:07;;;;;;;;;24.00;20.75;;;;;18.18;65.36;101596.09;5101492;27;47251;-87
2021/08/31 05:12:33;;;;;;;;;19.00;17.00;;;;;18.18;65.52;101598.75;5101649;27;45976;-79
2021/08/31 05:15:08;;;;;;;;;16.25;16.00;;;;;18.17;65.53;101597.06;5102459;27;45789;-79
2021/08/31 05:17:35;;;;;;;;;20.50;16.50;;;;;18.17;65.04;101594.41;5103957;27;45560;-78
2021/08/31 05:20:03;;;;;;;;;20.50;18.50;;;;;18.18;65.13;101603.22;5104865;27;46545;-80
2021/08/31 05:22:29;;;;;;;;;22.50;20.75;;;;;18.17;65.40;101607.66;5105453;27;46587;-82
2021/08/31 05:24:55;;;;;;;;;22.50;18.75;;;;;18.16;65.84;101613.09;5084947;27;45788;-80
2021/08/31 05:27:22;;;;;;;;;20.50;18.50;;;;;18.16;65.26;101611.28;5105579;27;45661;-81
2021/08/31 05:30:00;;;;;;;;;25.00;21.25;;;;;18.09;65.36;101602.16;5094520;27;46457;-80
2021/08/31 05:32:28;;;;;;;;;19.00;18.25;;;;;18.16;65.52;101627.19;5106839;27;45690;-79
2021/08/31 05:34:54;;;;;;;;;22.75;19.75;;;;;18.16;65.33;101616.59;5104392;27;45313;-80
2021/08/31 05:37:20;;;;;;;;;22.75;19.50;;;;;18.17;65.89;101615.63;5092068;27;46409;-80
2021/08/31 05:39:46;;;;;;;;;22.25;20.75;;;;;18.20;65.31;101622.47;5105780;27;46985;-79
2021/08/31 05:42:11;;;;;;;;;18.75;17.25;;;;;18.14;65.60;101607.09;5103995;27;46528;-83
2021/08/31 05:44:38;;;;;;;;;19.50;19.00;;;;;18.16;65.52;101615.75;5085470;27;46195;-78
2021/08/31 05:47:05;;;;;;;;;24.50;21.00;;;;;17.95;65.98;101582.16;5106364;27;45552;-79
2021/08/31 05:49:34;;;;;;;;;24.00;19.75;;;;;18.20;65.68;101625.97;5104618;27;45721;-80
2021/08/31 05:52:00;;;;;;;;;16.25;15.00;;;;;18.15;66.01;101625.53;5084607;27;46400;-78
2021/08/31 05:54:27;;;;;;;;;21.75;20.25;;;;;18.14;65.51;101621.19;5097695;27;46013;-78
2021/08/31 05:57:01;;;;;;;;;20.00;19.00;;;;;17.98;65.76;101608.41;5083352;28;45556;-80
2021/08/31 05:59:26;;;;;;;;;22.50;19.00;;;;;18.15;65.82;101632.63;5095482;27;45789;-82
2021/08/31 06:01:52;;;;;;;;;22.75;20.75;;;;;18.11;65.74;101624.13;5094339;27;45983;-81
2021/08/31 06:04:21;;;;;;;;;23.75;20.25;;;;;18.10;66.14;101621.59;5096126;27;45832;-80
2021/08/31 06:06:47;;;;;;;;;24.25;22.00;;;;;18.16;65.69;101629.84;5100126;27;45834;-79
2021/08/31 06:09:12;;;;;;;;;23.25;20.00;;;;;18.07;66.26;101625.34;5092725;27;46756;-80
2021/08/31 06:11:39;;;;;;;;;22.00;21.25;;;;;18.16;65.85;101644.94;5094318;27;46028;-78
2021/08/31 06:14:08;;;;;;;;;23.00;22.00;;;;;18.17;65.75;101641.31;5094086;27;46157;-79
2021/08/31 06:16:35;;;;;;;;;26.25;25.00;;;;;18.10;66.42;101634.84;5100517;27;46015;-79
2021/08/31 06:19:01;;;;;;;;;26.50;22.75;;;;;18.17;66.42;101641.31;5095222;27;47097;-78
2021/08/31 06:21:27;;;;;;;;;28.50;24.75;;;;;18.16;65.88;101648.44;5100783;27;46330;-78
2021/08/31 06:23:53;;;;;;;;;26.25;22.25;;;;;18.17;66.48;101642.16;5098565;27;45761;-81
2021/08/31 06:26:18;;;;;;;;;23.75;21.75;;;;;18.08;66.21;101629.69;5101122;27;45961;-79
2021/08/31 06:28:44;;;;;;;;;25.00;23.50;;;;;18.08;66.16;101628.84;5092183;27;46329;-80
2021/08/31 06:31:09;;;;;;;;;19.50;18.25;;;;;18.12;65.90;101644.38;5073646;27;47983;-80
2021/08/31 06:33:34;;;;;;;;;26.50;24.00;;;;;18.18;66.56;101641.19;5096983;27;45715;-76
2021/08/31 06:36:00;;;;;;;;;23.75;21.25;;;;;18.19;66.62;101648.16;5091836;27;47670;-79
2021/08/31 06:38:25;;;;;;;;;26.50;24.50;;;;;18.16;66.48;101642.28;5096264;27;47145;-78
2021/08/31 06:40:51;;;;;;;;;25.75;24.00;;;;;18.12;66.01;101635.56;5093115;27;46108;-81
2021/08/31 06:43:16;;;;;;;;;30.25;27.25;;;;;18.20;66.22;101649.00;5093688;27;45698;-81
2021/08/31 06:45:42;;;;;;;;;30.00;25.50;;;;;18.20;66.40;101651.66;5090628;27;45989;-77
2021/08/31 06:48:07;;;;;;;;;27.00;24.00;;;;;18.23;66.09;101654.06;5086166;27;45727;-84
2021/08/31 06:50:33;;;;;;;;;26.75;24.75;;;;;18.21;66.05;101643.56;5086553;27;46089;-82
2021/08/31 06:52:59;;;;;;;;;28.00;24.50;;;;;18.16;66.72;101637.81;5089091;27;46194;-81
2021/08/31 06:55:25;;;;;;;;;27.25;25.50;;;;;18.23;66.69;101649.59;5090038;27;45772;-81
2021/08/31 06:57:50;;;;;;;;;27.25;24.75;;;;;18.22;66.25;101645.25;5087255;27;46258;-81
2021/08/31 07:00:16;;;;;;;;;29.75;24.25;;;;;18.22;66.08;101642.59;5088318;27;46028;-82
2021/08/31 07:02:41;;;;;;;;;25.50;23.25;;;;;18.25;66.10;101652.09;5085089;27;46756;-78
2021/08/31 07:05:07;;;;;;;;;28.00;24.25;;;;;18.23;66.29;101646.94;5092012;27;46031;-79
2021/08/31 07:07:33;;;;;;;;;33.50;28.75;;;;;18.27;66.44;101647.50;5084144;27;46420;-79
2021/08/31 07:09:59;;;;;;;;;25.25;24.75;;;;;18.30;66.51;101653.38;5086551;27;45874;-84
2021/08/31 07:12:24;;;;;;;;;30.25;25.00;;;;;18.32;66.70;101661.19;5086659;27;46033;-81
2021/08/31 07:14:52;;;;;;;;;24.25;23.25;;;;;18.22;66.15;101642.59;5088433;27;46225;-81
2021/08/31 07:17:17;;;;;;;;;26.75;24.75;;;;;18.34;66.21;101656.63;5086222;27;45882;-79
2021/08/31 07:19:42;;;;;;;;;28.00;26.00;;;;;18.32;66.53;101655.91;5088128;27;46273;-81
2021/08/31 07:22:08;;;;;;;;;29.75;27.50;;;;;18.36;66.24;101665.25;5072034;27;45817;-90
2021/08/31 07:24:34;;;;;;;;;29.50;27.00;;;;;18.37;66.81;101657.19;5095988;27;45688;-84
2021/08/31 07:27:00;;;;;;;;;27.75;26.00;;;;;18.37;66.11;101664.28;5099237;27;46446;-82
2021/08/31 07:29:26;;;;;;;;;25.00;23.75;;;;;18.30;66.47;101647.25;5095908;27;46820;-81
2021/08/31 07:31:52;;;;;;;;;29.50;27.00;;;;;18.40;66.22;101653.44;5095498;27;46800;-80
2021/08/31 07:34:18;;;;;;;;;27.50;25.50;;;;;18.42;66.86;101665.56;5091789;27;45738;-85
2021/08/31 07:36:45;;;;;;;;;32.75;29.75;;;;;18.44;66.35;101663.63;5086992;27;45987;-83
2021/08/31 07:39:10;;;;;;;;;31.00;29.50;;;;;18.36;66.71;101631.59;5092374;27;46250;-81
2021/08/31 07:41:36;;;;;;;;;27.75;24.75;;;;;18.52;66.20;101656.78;5095100;27;45731;-86
2021/08/31 07:44:01;;;;;;;;;31.25;29.00;;;;;18.56;66.08;101656.44;5091292;27;45968;-87
2021/08/31 07:46:27;;;;;;;;;29.75;28.25;;;;;18.53;66.46;101645.22;5094361;27;46496;-81
2021/08/31 07:48:52;;;;;;;;;34.00;30.00;;;;;18.64;66.35;101661.06;5095266;27;47506;-84
2021/08/31 07:51:18;;;;;;;;;28.50;27.50;;;;;18.57;66.14;101642.19;5093452;27;46557;-89
2021/08/31 07:53:43;;;;;;;;;30.00;26.00;;;;;18.68;66.00;101659.81;5092981;27;45946;-80
2021/08/31 07:56:09;;;;;;;;;28.25;25.75;;;;;18.75;66.00;101669.78;5075721;27;46439;-83
2021/08/31 07:58:34;;;;;;;;;33.00;29.25;;;;;18.80;66.16;101682.63;5097091;27;46357;-81
2021/08/31 08:01:01;;;;;;;;;27.00;26.50;;;;;18.81;65.64;101665.72;5097270;27;45957;-80
2021/08/31 08:03:26;;;;;;;;;26.75;25.50;;;;;18.84;65.96;101670.75;5095575;27;45567;-84
2021/08/31 08:05:53;;;;;;;;;30.50;27.50;;;;;18.81;65.80;101665.72;5093309;27;45809;-85
2021/08/31 08:08:19;;;;;;;;;29.75;27.75;;;;;18.77;65.53;101662.53;5083816;27;46673;-82
2021/08/31 08:10:44;;;;;;;;;30.50;27.00;;;;;18.87;65.81;101673.16;5096616;27;46085;-88
2021/08/31 08:13:10;;;;;;;;;31.50;28.50;;;;;18.90;65.59;101680.00;5094121;27;46180;-86
2021/08/31 08:15:35;;;;;;;;;31.75;28.00;;;;;18.85;65.58;101667.97;5093173;27;46815;-86
2021/08/31 08:18:01;;;;;;;;;27.00;25.00;;;;;18.91;65.85;101671.06;5101627;27;45467;-82
2021/08/31 08:20:27;;;;;;;;;32.00;27.00;;;;;18.87;65.49;101675.81;5095913;27;45809;-85
2021/08/31 08:22:53;;;;;;;;;25.25;24.00;;;;;19.00;65.08;101694.16;5068872;27;47362;-86
2021/08/31 08:25:18;;;;;;;;;27.00;25.25;;;;;19.01;65.64;101685.19;5088614;27;45852;-85
2021/08/31 08:27:44;;;;;;;;;28.00;26.50;;;;;19.06;65.17;101686.47;5084020;27;45879;-82
2021/08/31 08:30:11;;;;;;;;;24.50;23.25;;;;;19.07;64.98;101677.53;5086183;27;46214;-84
2021/08/31 08:32:36;;;;;;;;;32.00;25.25;;;;;19.21;64.63;101697.56;5083852;27;45804;-85
2021/08/31 08:35:03;;;;;;;;;25.75;23.25;;;;;19.17;64.97;101683.69;5094783;27;46369;-90
2021/08/31 08:37:28;;;;;;;;;25.25;23.25;;;;;19.31;64.59;101700.22;5086679;27;46122;-84
2021/08/31 08:39:54;;;;;;;;;25.75;23.25;;;;;19.36;64.61;101697.97;5096253;27;46107;-84
2021/08/31 08:42:19;;;;;;;;;26.00;23.75;;;;;19.19;64.23;101665.78;5097705;27;45897;-78
2021/08/31 08:44:45;;;;;;;;;24.00;22.50;;;;;19.44;64.44;101703.41;5093773;27;45698;-87
2021/08/31 08:47:11;;;;;;;;;22.50;21.25;;;;;19.39;64.10;101682.56;5100697;27;45794;-91
2021/08/31 08:49:37;;;;;;;;;19.75;18.75;;;;;19.50;63.70;101705.56;5078841;27;45763;-83
2021/08/31 08:52:03;;;;;;;;;20.50;19.00;;;;;19.55;63.76;101705.97;5094023;27;45873;-86
2021/08/31 08:54:29;;;;;;;;;22.75;21.00;;;;;19.56;63.45;101695.22;5094687;27;46286;-84
2021/08/31 08:56:55;;;;;;;;;21.25;21.00;;;;;19.69;63.29;101708.22;5101042;27;45747;-83
2021/08/31 08:59:22;;;;;;;;;29.75;25.75;;;;;19.75;63.26;101704.16;5100462;27;45714;-80
2021/08/31 09:01:52;;;;;;;;;29.00;24.00;;;;;19.73;62.72;101704.28;5091126;27;45907;-79
2021/08/31 09:04:21;;;;;;;;;27.50;24.00;;;;;19.84;62.84;101712.13;5090794;27;46315;-78
2021/08/31 09:06:47;;;;;;;;;22.00;20.75;;;;;19.79;62.64;101701.06;5092423;27;46117;-80
2021/08/31 09:09:13;;;;;;;;;24.00;22.00;;;;;19.72;62.32;101670.69;5086679;27;46131;-80
2021/08/31 09:11:46;;;;;;;;;25.00;20.00;;;;;19.96;62.30;101704.84;5087933;27;46978;-79
2021/08/31 09:14:26;;;;;;;;;21.75;20.00;;;;;19.97;61.92;101703.84;5087765;27;46228;-82
2021/08/31 09:16:57;;;;;;;;;23.50;19.25;;;;;19.99;61.92;101696.56;5086690;27;46327;-83
2021/08/31 09:19:30;;;;;;;;;18.50;18.25;;;;;20.07;61.67;101710.00;5093943;27;45627;-84
2021/08/31 09:22:18;;;;;;;;;23.50;21.25;;;;;20.09;61.68;101708.00;5102095;27;45623;-84
2021/08/31 09:24:57;;;;;;;;;22.50;21.50;;;;;20.07;61.39;101704.66;5097550;27;45650;-82
2021/08/31 09:27:45;;;;;;;;;25.00;24.00;;;;;20.07;61.23;101696.69;5097733;27;45567;-89
2021/08/31 09:30:24;;;;;;;;;22.00;20.25;;;;;20.17;61.41;101708.16;5100801;27;45768;-83
2021/08/31 09:36:24;;;;;;;;;24.25;21.50;;;;;20.26;61.02;101717.91;5097634;27;45945;-82
2021/08/31 09:38:55;;;;;;;;;22.00;19.00;;;;;20.32;60.90;101703.22;5100754;27;46111;-83
2021/08/31 09:41:35;;;;;;;;;21.50;19.75;;;;;20.35;60.67;101706.41;5103993;27;45882;-81
2021/08/31 09:44:07;;;;;;;;;24.50;23.00;;;;;20.40;60.44;101714.00;5102107;27;45462;-81
2021/08/31 09:46:54;;;;;;;;;21.00;19.00;;;;;20.43;60.44;101706.53;5097427;27;45648;-82
2021/08/31 09:49:26;;;;;;;;;19.00;17.50;;;;;20.48;60.69;101708.75;5098274;27;46193;-81
2021/08/31 09:52:01;;;;;;;;;21.25;18.00;;;;;20.48;60.31;101700.78;5096905;27;45847;-85
2021/08/31 09:54:26;;;;;;;;;23.50;19.50;;;;;20.56;60.40;101700.91;5097532;27;45398;-83
2021/08/31 09:56:52;;;;;;;;;21.25;17.00;;;;;20.52;60.34;101694.16;5099649;27;45941;-86
2021/08/31 09:59:19;;;;;;;;;20.50;18.75;;;;;20.63;60.02;101712.63;5101840;27;45643;-87
2021/08/31 10:01:44;;;;;;;;;26.00;21.00;;;;;20.67;59.90;101710.53;5102872;27;45618;-88
2021/08/31 10:04:10;;;;;;;;;20.50;19.00;;;;;20.66;59.61;101698.19;5082077;27;45576;-81
2021/08/31 10:06:37;;;;;;;;;26.25;22.75;;;;;20.62;59.87;101686.97;5098880;27;45643;-86
2021/08/31 10:09:03;;;;;;;;;25.25;19.00;;;;;20.82;59.56;101712.53;5102806;27;45578;-84
2021/08/31 10:11:29;;;;;;;;;20.50;19.25;;;;;20.79;59.45;101699.50;5105556;27;45544;-87
2021/08/31 10:13:55;;;;;;;;;26.25;22.50;;;;;20.87;59.25;101694.28;5104754;27;45469;-81
2021/08/31 10:16:22;;;;;;;;;26.25;21.25;;;;;20.97;59.03;101712.03;5103989;27;45798;-82
2021/08/31 10:18:48;;;;;;;;;18.50;17.75;;;;;20.98;58.84;101703.91;5104488;27;46452;-82
2021/08/31 10:21:14;;;;;;;;;20.00;17.50;;;;;20.86;58.60;101667.78;5099016;27;45695;-86
2021/08/31 10:23:46;;;;;;;;;22.25;19.00;;;;;21.16;58.67;101711.97;5097884;27;45438;-82
2021/08/31 10:26:27;;;;;;;;;22.25;19.75;;;;;21.15;58.21;101699.63;5101370;27;45593;-85
2021/08/31 10:29:21;;;;;;;;;19.00;17.75;;;;;21.28;58.35;101713.41;5099503;27;46232;-85
2021/08/31 10:31:52;;;;;;;;;20.50;18.75;;;;;21.31;57.72;101716.63;5097453;27;45797;-83
2021/08/31 10:34:30;;;;;;;;;21.50;19.75;;;;;21.35;57.94;101725.13;5096298;27;45504;-81
2021/08/31 10:37:05;;;;;;;;;22.25;20.00;;;;;21.36;57.92;101716.16;5096592;27;45696;-79
2021/08/31 10:39:47;;;;;;;;;31.25;26.25;;;;;21.40;58.39;101730.84;5096912;27;46105;-83
2021/08/31 10:42:32;;;;;;;;;27.50;23.50;;;;;21.44;57.46;101728.72;5099183;27;45680;-83
2021/08/31 10:45:00;;;;;;;;;39.25;31.25;;;;;21.36;57.77;101702.81;5097088;27;45549;-81
2021/08/31 10:47:34;;;;;;;;;29.25;28.25;;;;;21.55;57.55;101723.16;5097437;27;45704;-84
2021/08/31 10:49:59;;;;;;;;;33.00;28.00;;;;;21.59;57.18;101725.34;5096820;27;46543;-82
2021/08/31 10:53:09;;;;;;;;;24.50;23.50;;;;;21.64;57.36;101716.91;5098111;27;45674;-79
2021/08/31 10:55:37;;;;;;;;;22.75;21.00;;;;;21.70;56.96;101726.97;5095931;27;45579;-82
2021/08/31 10:58:09;;;;;;;;;22.50;21.50;;;;;21.74;57.08;101728.34;5097177;27;47515;-81
2021/08/31 11:00:54;;;;;;;;;16.50;16.25;;;;;21.75;56.37;101714.00;5098047;27;46113;-85
2021/08/31 11:03:31;;;;;;;;;24.00;20.00;;;;;21.70;56.96;101705.63;5034840;28;45817;-81
2021/08/31 11:06:14;;;;;;;;;17.75;17.25;;;;;21.62;56.62;101702.88;5035818;28;45664;-84
2021/08/31 11:08:39;;;;;;;;;19.50;17.75;;;;;21.74;56.12;101709.66;5035605;28;45709;-82
2021/08/31 11:11:04;;;;;;;;;22.00;19.25;;;;;21.76;56.40;101716.50;5037083;28;45927;-81
2021/08/31 11:13:31;;;;;;;;;17.75;17.50;;;;;21.77;56.30;101712.00;5039362;28;45715;-85
2021/08/31 11:15:57;;;;;;;;;18.00;17.25;;;;;21.67;56.00;101689.91;5034560;28;45574;-82
2021/08/31 11:18:22;;;;;;;;;20.75;18.25;;;;;21.78;56.04;101713.69;5035396;28;45716;-86
2021/08/31 11:20:49;;;;;;;;;19.25;16.25;;;;;21.82;56.11;101717.72;5034195;28;46407;-83
2021/08/31 11:23:19;;;;;;;;;18.00;17.75;;;;;21.83;55.72;101715.91;5019701;28;45543;-82
2021/08/31 11:25:44;;;;;;;;;20.50;17.75;;;;;21.83;55.66;101719.41;5039538;28;45563;-82
2021/08/31 11:28:18;;;;;;;;;20.75;17.50;;;;;21.82;56.00;101715.06;5034906;28;46626;-81
2021/08/31 11:30:48;;;;;;;;;18.75;15.00;;;;;21.80;55.57;101706.38;5035031;28;46183;-81
2021/08/31 11:33:24;;;;;;;;;14.00;14.00;;;;;21.88;55.30;101717.09;5033287;28;45726;-85
2021/08/31 11:36:07;;;;;;;;;21.00;18.75;;;;;21.81;54.97;101702.69;5034594;28;45585;-87
2021/08/31 11:38:53;;;;;;;;;17.50;17.00;;;;;21.95;54.85;101718.19;5033186;28;47805;-83
2021/08/31 11:41:25;;;;;;;;;19.50;18.25;;;;;21.96;54.80;101713.69;5085752;27;45515;-83
2021/08/31 11:43:56;;;;;;;;;16.00;13.00;;;;;21.89;54.43;101694.78;5096242;27;45555;-84
2021/08/31 11:46:33;;;;;;;;;16.75;15.25;;;;;21.98;54.23;101717.88;5096185;27;45531;-83
2021/08/31 11:49:17;;;;;;;;;20.00;16.50;;;;;21.99;54.66;101719.56;5095707;27;45567;-81